createdAt,value
2018-08-08T00:00:03.126Z,24.08
2018-08-08T00:01:03.066Z,24.11
2018-08-08T00:02:02.997Z,24.02
2018-08-08T00:03:02.931Z,24.07
2018-08-08T00:04:23.833Z,24.07
2018-08-08T00:05:02.789Z,23.98
2018-08-08T00:06:02.715Z,23.95
2018-08-08T00:07:02.655Z,23.90
2018-08-08T00:08:02.584Z,23.93
2018-08-08T00:09:02.520Z,23.92
2018-08-08T00:10:23.420Z,23.95
2018-08-08T00:11:02.378Z,23.87
2018-08-08T00:12:02.295Z,23.83
2018-08-08T00:13:02.240Z,23.80
2018-08-08T00:14:02.160Z,23.78
2018-08-08T00:15:02.113Z,23.74
2018-08-08T00:16:23.004Z,23.56
2018-08-08T00:17:01.957Z,23.61
2018-08-08T00:18:01.886Z,23.60
2018-08-08T00:19:01.829Z,23.58
2018-08-08T00:20:01.742Z,23.52
2018-08-08T00:21:01.683Z,23.58
2018-08-08T00:22:22.589Z,23.49
2018-08-08T00:23:01.544Z,23.43
2018-08-08T00:24:01.486Z,23.42
2018-08-08T00:25:01.403Z,23.31
2018-08-08T00:26:01.330Z,23.29
2018-08-08T00:27:01.269Z,23.15
2018-08-08T00:28:22.173Z,23.20
2018-08-08T00:29:01.132Z,23.31
2018-08-08T00:30:01.048Z,23.26
2018-08-08T00:31:00.987Z,23.18
2018-08-08T00:32:00.929Z,23.20
2018-08-08T00:33:00.855Z,23.22
2018-08-08T00:34:21.760Z,23.20
2018-08-08T00:35:00.708Z,23.17
2018-08-08T00:36:00.635Z,23.22
2018-08-08T00:37:00.575Z,23.00
2018-08-08T00:38:00.497Z,22.84
2018-08-08T00:39:00.435Z,22.89
2018-08-08T00:40:21.343Z,22.74
2018-08-08T00:41:00.302Z,22.68
2018-08-08T00:42:00.221Z,22.62
2018-08-08T00:43:00.156Z,22.71
2018-08-08T00:44:00.088Z,22.65
2018-08-08T00:45:00.021Z,22.67
2018-08-08T00:46:20.922Z,22.65
2018-08-08T00:46:59.877Z,22.71
2018-08-08T00:47:59.811Z,22.79
2018-08-08T00:48:59.746Z,22.81
2018-08-08T00:49:59.669Z,22.79
2018-08-08T00:50:59.601Z,22.84
2018-08-08T00:52:20.510Z,22.84
2018-08-08T00:52:59.468Z,22.79
2018-08-08T00:53:59.386Z,22.87
2018-08-08T00:54:59.325Z,22.93
2018-08-08T00:55:59.244Z,22.90
2018-08-08T00:56:59.182Z,22.99
2018-08-08T00:58:20.098Z,22.94
2018-08-08T00:58:59.047Z,23.07
2018-08-08T00:59:58.967Z,22.92
2018-08-08T01:00:58.912Z,23.02
2018-08-08T01:01:58.829Z,23.02
2018-08-08T01:02:58.771Z,23.00
2018-08-08T01:04:19.674Z,22.94
2018-08-08T01:04:58.631Z,23.00
2018-08-08T01:05:58.549Z,23.00
2018-08-08T01:06:58.491Z,22.99
2018-08-08T01:07:58.412Z,23.02
2018-08-08T01:08:58.464Z,22.96
2018-08-08T01:10:19.256Z,22.92
2018-08-08T01:10:58.218Z,22.92
2018-08-08T01:11:58.132Z,22.90
2018-08-08T01:12:58.070Z,22.93
2018-08-08T01:13:57.993Z,22.94
2018-08-08T01:14:57.935Z,22.83
2018-08-08T01:16:18.839Z,22.78
2018-08-08T01:16:57.799Z,22.72
2018-08-08T01:17:57.715Z,22.60
2018-08-08T01:18:57.651Z,22.41
2018-08-08T01:19:57.578Z,22.28
2018-08-08T01:20:57.513Z,22.20
2018-08-08T01:22:18.417Z,22.17
2018-08-08T01:22:57.372Z,22.04
2018-08-08T01:23:57.296Z,21.92
2018-08-08T01:24:57.235Z,22.01
2018-08-08T01:25:57.157Z,22.04
2018-08-08T01:26:57.097Z,21.95
2018-08-08T01:28:18.010Z,21.97
2018-08-08T01:28:56.950Z,21.97
2018-08-08T01:29:56.882Z,21.84
2018-08-08T01:30:56.818Z,21.85
2018-08-08T01:31:56.737Z,21.72
2018-08-08T01:32:56.678Z,21.70
2018-08-08T01:34:17.582Z,21.63
2018-08-08T01:34:56.549Z,21.57
2018-08-08T01:35:56.461Z,21.39
2018-08-08T01:36:56.394Z,21.35
2018-08-08T01:37:56.321Z,21.31
2018-08-08T01:38:56.258Z,21.30
2018-08-08T01:40:17.161Z,21.11
2018-08-08T01:40:56.113Z,21.11
2018-08-08T01:41:56.038Z,21.11
2018-08-08T01:42:55.974Z,21.19
2018-08-08T01:43:55.895Z,21.17
2018-08-08T01:44:55.832Z,21.08
2018-08-08T01:46:16.738Z,21.12
2018-08-08T01:46:55.691Z,21.08
2018-08-08T01:47:55.613Z,21.09
2018-08-08T01:48:55.552Z,20.93
2018-08-08T01:49:55.473Z,20.89
2018-08-08T01:50:55.412Z,20.72
2018-08-08T01:52:16.320Z,20.76
2018-08-08T01:52:55.268Z,20.66
2018-08-08T01:53:55.195Z,20.66
2018-08-08T01:54:55.137Z,20.59
2018-08-08T01:55:55.049Z,20.51
2018-08-08T01:56:54.993Z,20.49
2018-08-08T01:58:15.901Z,20.43
2018-08-08T01:58:54.849Z,20.42
2018-08-08T01:59:54.767Z,20.34
2018-08-08T02:00:54.707Z,20.35
2018-08-08T02:01:54.632Z,20.31
2018-08-08T02:02:54.564Z,20.31
2018-08-08T02:04:15.471Z,20.30
2018-08-08T02:04:54.430Z,20.28
2018-08-08T02:05:54.343Z,20.42
2018-08-08T02:06:54.287Z,20.42
2018-08-08T02:07:54.205Z,20.34
2018-08-08T02:08:54.140Z,20.27
2018-08-08T02:10:15.047Z,20.40
2018-08-08T02:10:54.008Z,20.35
2018-08-08T02:11:53.922Z,20.33
2018-08-08T02:12:53.870Z,20.35
2018-08-08T02:13:53.779Z,20.28
2018-08-08T02:14:53.715Z,20.30
2018-08-08T02:16:14.619Z,20.23
2018-08-08T02:16:53.573Z,20.09
2018-08-08T02:17:53.502Z,20.05
2018-08-08T02:18:53.436Z,20.05
2018-08-08T02:19:53.352Z,20.06
2018-08-08T02:20:53.291Z,20.05
2018-08-08T02:22:14.192Z,20.03
2018-08-08T02:22:53.147Z,20.00
2018-08-08T02:23:53.069Z,20.00
2018-08-08T02:24:53.009Z,20.10
2018-08-08T02:25:52.926Z,20.12
2018-08-08T02:26:52.874Z,20.24
2018-08-08T02:28:13.773Z,20.18
2018-08-08T02:28:52.721Z,20.23
2018-08-08T02:29:52.641Z,20.15
2018-08-08T02:30:52.582Z,20.00
2018-08-08T02:31:52.516Z,19.83
2018-08-08T02:32:52.428Z,19.64
2018-08-08T02:34:13.349Z,19.57
2018-08-08T02:34:52.839Z,19.48
2018-08-08T02:35:52.231Z,19.48
2018-08-08T02:36:52.141Z,19.38
2018-08-08T02:37:52.089Z,19.38
2018-08-08T02:38:52.000Z,19.32
2018-08-08T02:40:12.923Z,19.46
2018-08-08T02:40:51.856Z,19.43
2018-08-08T02:41:51.792Z,19.40
2018-08-08T02:42:51.721Z,19.45
2018-08-08T02:43:51.651Z,19.53
2018-08-08T02:44:51.572Z,19.46
2018-08-08T02:46:12.490Z,19.55
2018-08-08T02:46:51.433Z,19.55
2018-08-08T02:47:51.365Z,19.53
2018-08-08T02:48:51.287Z,19.53
2018-08-08T02:49:51.226Z,19.51
2018-08-08T02:50:51.170Z,19.53
2018-08-08T02:52:12.062Z,19.46
2018-08-08T02:52:51.014Z,19.28
2018-08-08T02:53:50.935Z,19.38
2018-08-08T02:54:50.857Z,19.32
2018-08-08T02:55:50.799Z,19.32
2018-08-08T02:56:50.718Z,19.24
2018-08-08T02:58:11.641Z,19.27
2018-08-08T02:58:50.570Z,19.21
2018-08-08T02:59:50.510Z,19.20
2018-08-08T03:00:50.430Z,19.35
2018-08-08T03:01:50.363Z,19.20
2018-08-08T03:02:50.293Z,19.21
2018-08-08T03:04:11.203Z,19.23
2018-08-08T03:04:50.140Z,19.17
2018-08-08T03:05:50.076Z,19.23
2018-08-08T03:06:50.000Z,19.25
2018-08-08T03:07:49.948Z,19.31
2018-08-08T03:08:49.856Z,19.27
2018-08-08T03:10:10.774Z,19.17
2018-08-08T03:10:49.715Z,19.20
2018-08-08T03:11:49.652Z,19.15
2018-08-08T03:12:49.565Z,19.20
2018-08-08T03:13:49.504Z,19.17
2018-08-08T03:14:49.426Z,19.17
2018-08-08T03:16:10.341Z,19.21
2018-08-08T03:16:49.283Z,19.23
2018-08-08T03:17:49.212Z,19.06
2018-08-08T03:18:49.136Z,18.97
2018-08-08T03:19:49.069Z,18.97
2018-08-08T03:20:48.988Z,18.82
2018-08-08T03:22:09.911Z,18.83
2018-08-08T03:22:48.854Z,18.79
2018-08-08T03:23:53.541Z,18.80
2018-08-08T03:24:48.710Z,18.68
2018-08-08T03:25:48.636Z,18.65
2018-08-08T03:26:48.565Z,18.67
2018-08-08T03:28:09.486Z,18.68
2018-08-08T03:28:48.411Z,18.68
2018-08-08T03:29:48.439Z,18.71
2018-08-08T03:30:48.271Z,18.84
2018-08-08T03:31:48.293Z,18.76
2018-08-08T03:32:48.126Z,18.84
2018-08-08T03:34:09.147Z,18.94
2018-08-08T03:34:47.985Z,18.83
2018-08-08T03:35:47.909Z,18.87
2018-08-08T03:36:47.845Z,18.84
2018-08-08T03:37:47.769Z,18.80
2018-08-08T03:38:47.780Z,18.83
2018-08-08T03:40:08.605Z,18.83
2018-08-08T03:40:47.590Z,18.62
2018-08-08T03:41:47.480Z,18.67
2018-08-08T03:42:47.502Z,18.61
2018-08-08T03:43:47.330Z,18.55
2018-08-08T03:44:47.314Z,18.57
2018-08-08T03:46:08.169Z,18.43
2018-08-08T03:46:47.219Z,18.39
2018-08-08T03:47:47.039Z,18.27
2018-08-08T03:48:46.981Z,18.24
2018-08-08T03:49:46.902Z,18.27
2018-08-08T03:50:46.835Z,18.18
2018-08-08T03:52:07.735Z,18.19
2018-08-08T03:52:46.688Z,18.27
2018-08-08T03:53:46.606Z,18.24
2018-08-08T03:54:46.549Z,18.32
2018-08-08T03:55:46.461Z,18.32
2018-08-08T03:56:46.470Z,18.28
2018-08-08T03:58:07.300Z,18.39
2018-08-08T03:58:46.307Z,18.46
2018-08-08T03:59:46.174Z,18.47
2018-08-08T04:00:46.195Z,18.37
2018-08-08T04:01:46.057Z,18.55
2018-08-08T04:02:46.084Z,18.53
2018-08-08T04:04:06.869Z,18.44
2018-08-08T04:04:45.906Z,18.44
2018-08-08T04:05:45.737Z,18.53
2018-08-08T04:06:45.715Z,18.52
2018-08-08T04:07:45.594Z,18.42
2018-08-08T04:08:45.534Z,18.43
2018-08-08T04:10:06.430Z,18.50
2018-08-08T04:10:45.439Z,18.44
2018-08-08T04:11:45.304Z,18.46
2018-08-08T04:12:45.346Z,18.47
2018-08-08T04:13:45.160Z,18.40
2018-08-08T04:14:45.159Z,18.42
2018-08-08T04:16:05.997Z,18.37
2018-08-08T04:16:44.966Z,18.39
2018-08-08T04:17:44.882Z,18.34
2018-08-08T04:18:44.876Z,18.39
2018-08-08T04:19:44.735Z,18.42
2018-08-08T04:20:44.684Z,18.40
2018-08-08T04:22:05.561Z,18.40
2018-08-08T04:22:44.594Z,18.49
2018-08-08T04:23:44.441Z,18.46
2018-08-08T04:24:44.402Z,18.43
2018-08-08T04:25:44.285Z,18.47
2018-08-08T04:26:44.310Z,18.50
2018-08-08T04:28:05.132Z,18.59
2018-08-08T04:28:44.122Z,18.62
2018-08-08T04:29:44.000Z,18.69
2018-08-08T04:30:44.035Z,18.71
2018-08-08T04:31:43.853Z,18.71
2018-08-08T04:32:43.843Z,18.67
2018-08-08T04:34:04.692Z,18.69
2018-08-08T04:34:43.754Z,18.68
2018-08-08T04:35:43.570Z,18.67
2018-08-08T04:36:43.560Z,18.84
2018-08-08T04:37:43.416Z,18.77
2018-08-08T04:38:43.355Z,18.89
2018-08-08T04:40:04.254Z,18.90
2018-08-08T04:40:43.281Z,19.01
2018-08-08T04:41:43.133Z,18.95
2018-08-08T04:42:43.103Z,19.05
2018-08-08T04:43:42.989Z,19.06
2018-08-08T04:44:43.008Z,19.08
2018-08-08T04:46:03.828Z,19.15
2018-08-08T04:46:42.815Z,19.13
2018-08-08T04:47:42.697Z,19.25
2018-08-08T04:48:42.631Z,19.17
2018-08-08T04:49:42.542Z,19.23
2018-08-08T04:50:42.526Z,19.25
2018-08-08T04:52:03.386Z,19.28
2018-08-08T04:52:42.441Z,19.28
2018-08-08T04:53:42.254Z,19.25
2018-08-08T04:54:42.255Z,19.32
2018-08-08T04:55:42.109Z,19.25
2018-08-08T04:56:42.049Z,19.25
2018-08-08T04:58:02.952Z,19.27
2018-08-08T04:58:41.901Z,19.39
2018-08-08T04:59:41.821Z,19.35
2018-08-08T05:00:41.783Z,19.33
2018-08-08T05:01:41.678Z,19.46
2018-08-08T05:02:41.683Z,19.31
2018-08-08T05:04:02.516Z,19.39
2018-08-08T05:04:41.498Z,19.35
2018-08-08T05:05:41.394Z,19.36
2018-08-08T05:06:41.402Z,19.42
2018-08-08T05:07:41.240Z,19.43
2018-08-08T05:08:41.183Z,19.48
2018-08-08T05:10:02.083Z,19.51
2018-08-08T05:10:41.125Z,19.55
2018-08-08T05:11:40.956Z,19.46
2018-08-08T05:12:40.934Z,19.54
2018-08-08T05:13:40.803Z,19.55
2018-08-08T05:14:40.849Z,19.51
2018-08-08T05:16:01.652Z,19.65
2018-08-08T05:16:40.654Z,19.58
2018-08-08T05:17:40.521Z,19.71
2018-08-08T05:18:40.457Z,19.73
2018-08-08T05:19:40.378Z,19.79
2018-08-08T05:20:40.372Z,19.90
2018-08-08T05:22:01.211Z,19.91
2018-08-08T05:22:40.185Z,19.97
2018-08-08T05:23:40.085Z,19.93
2018-08-08T05:24:40.096Z,19.98
2018-08-08T05:25:39.949Z,20.03
2018-08-08T05:26:39.871Z,20.13
2018-08-08T05:28:00.789Z,20.09
2018-08-08T05:28:39.723Z,20.10
2018-08-08T05:29:39.725Z,20.08
2018-08-08T05:30:39.611Z,20.15
2018-08-08T05:31:39.746Z,20.12
2018-08-08T05:32:39.437Z,20.10
2018-08-08T05:34:00.444Z,20.09
2018-08-08T05:34:39.290Z,20.20
2018-08-08T05:35:39.259Z,20.24
2018-08-08T05:36:39.146Z,20.26
2018-08-08T05:37:39.170Z,20.35
2018-08-08T05:38:39.003Z,20.31
2018-08-08T05:39:59.927Z,20.28
2018-08-08T05:40:38.858Z,20.38
2018-08-08T05:41:38.831Z,20.35
2018-08-08T05:42:38.718Z,20.47
2018-08-08T05:43:38.653Z,20.53
2018-08-08T05:44:38.756Z,20.50
2018-08-08T05:45:59.513Z,20.50
2018-08-08T05:46:38.424Z,20.64
2018-08-08T05:47:38.432Z,20.62
2018-08-08T05:48:38.283Z,20.68
2018-08-08T05:49:38.342Z,20.82
2018-08-08T05:50:38.141Z,20.90
2018-08-08T05:51:59.150Z,20.91
2018-08-08T05:52:37.998Z,21.08
2018-08-08T05:53:37.927Z,21.09
2018-08-08T05:54:37.971Z,21.08
2018-08-08T05:55:37.780Z,21.20
2018-08-08T05:56:37.789Z,21.17
2018-08-08T05:57:58.631Z,21.21
2018-08-08T05:58:37.585Z,21.31
2018-08-08T05:59:37.496Z,21.39
2018-08-08T06:00:37.500Z,21.36
2018-08-08T06:01:37.421Z,21.54
2018-08-08T06:02:37.279Z,21.61
2018-08-08T06:03:58.190Z,21.69
2018-08-08T06:04:37.230Z,21.81
2018-08-08T06:05:37.064Z,21.74
2018-08-08T06:06:37.042Z,21.79
2018-08-08T06:07:36.921Z,21.95
2018-08-08T06:08:36.942Z,21.98
2018-08-08T06:09:57.764Z,22.00
2018-08-08T06:10:36.751Z,22.02
2018-08-08T06:11:36.632Z,22.00
2018-08-08T06:12:36.661Z,22.05
2018-08-08T06:13:36.500Z,22.07
2018-08-08T06:14:36.473Z,22.02
2018-08-08T06:15:57.336Z,22.05
2018-08-08T06:16:36.380Z,22.13
2018-08-08T06:17:36.208Z,22.20
2018-08-08T06:18:36.192Z,22.16
2018-08-08T06:19:36.065Z,22.22
2018-08-08T06:20:36.199Z,22.20
2018-08-08T06:21:56.916Z,22.17
2018-08-08T06:22:35.879Z,22.28
2018-08-08T06:23:35.779Z,22.26
2018-08-08T06:24:35.720Z,22.34
2018-08-08T06:25:35.692Z,22.32
2018-08-08T06:26:35.585Z,22.38
2018-08-08T06:27:56.602Z,22.44
2018-08-08T06:28:35.426Z,22.44
2018-08-08T06:29:35.411Z,22.56
2018-08-08T06:30:35.542Z,22.54
2018-08-08T06:31:35.323Z,22.56
2018-08-08T06:32:35.143Z,22.63
2018-08-08T06:33:56.141Z,22.71
2018-08-08T06:34:35.008Z,22.75
2018-08-08T06:35:35.045Z,22.81
2018-08-08T06:36:34.859Z,22.79
2018-08-08T06:37:34.849Z,22.89
2018-08-08T06:38:34.724Z,22.89
2018-08-08T06:39:55.658Z,23.04
2018-08-08T06:40:34.614Z,23.15
2018-08-08T06:41:34.575Z,23.17
2018-08-08T06:42:34.444Z,23.18
2018-08-08T06:43:34.479Z,23.24
2018-08-08T06:44:34.292Z,23.27
2018-08-08T06:45:55.280Z,23.27
2018-08-08T06:46:34.158Z,23.48
2018-08-08T06:47:34.206Z,23.50
2018-08-08T06:48:34.014Z,23.58
2018-08-08T06:49:34.010Z,23.65
2018-08-08T06:50:33.882Z,23.65
2018-08-08T06:51:54.807Z,23.74
2018-08-08T06:52:33.732Z,23.93
2018-08-08T06:53:33.665Z,23.89
2018-08-08T06:54:33.636Z,24.02
2018-08-08T06:55:33.533Z,24.05
2018-08-08T06:56:33.544Z,24.16
2018-08-08T06:57:54.359Z,24.30
2018-08-08T06:58:33.355Z,24.47
2018-08-08T06:59:33.239Z,24.44
2018-08-08T07:00:33.264Z,24.59
2018-08-08T07:01:33.096Z,24.66
2018-08-08T07:02:33.068Z,24.80
2018-08-08T07:03:53.964Z,24.85
2018-08-08T07:04:32.894Z,25.08
2018-08-08T07:05:32.938Z,25.04
2018-08-08T07:06:32.745Z,25.08
2018-08-08T07:07:32.695Z,25.23
2018-08-08T07:08:32.612Z,25.23
2018-08-08T07:09:53.599Z,25.31
2018-08-08T07:10:32.475Z,25.30
2018-08-08T07:11:32.521Z,25.30
2018-08-08T07:12:32.333Z,25.31
2018-08-08T07:13:32.324Z,25.34
2018-08-08T07:14:32.190Z,25.50
2018-08-08T07:15:53.351Z,25.41
2018-08-08T07:16:32.048Z,25.38
2018-08-08T07:17:31.980Z,25.57
2018-08-08T07:18:31.952Z,25.65
2018-08-08T07:19:31.842Z,25.68
2018-08-08T07:20:31.871Z,25.59
2018-08-08T07:21:52.693Z,25.62
2018-08-08T07:22:31.678Z,25.77
2018-08-08T07:23:31.569Z,25.83
2018-08-08T07:24:31.589Z,25.79
2018-08-08T07:25:31.569Z,25.79
2018-08-08T07:26:31.398Z,25.78
2018-08-08T07:27:52.272Z,25.87
2018-08-08T07:28:31.300Z,25.94
2018-08-08T07:29:31.151Z,25.89
2018-08-08T07:30:31.112Z,25.90
2018-08-08T07:31:31.025Z,25.92
2018-08-08T07:32:31.046Z,26.02
2018-08-08T07:33:51.860Z,26.08
2018-08-08T07:34:30.829Z,26.02
2018-08-08T07:35:30.736Z,26.20
2018-08-08T07:36:30.745Z,26.23
2018-08-08T07:37:30.607Z,26.30
2018-08-08T07:38:30.575Z,26.38
2018-08-08T07:39:51.492Z,26.45
2018-08-08T07:40:30.515Z,26.46
2018-08-08T07:41:30.325Z,26.61
2018-08-08T07:42:30.373Z,26.60
2018-08-08T07:43:30.192Z,26.79
2018-08-08T07:44:30.184Z,26.84
2018-08-08T07:45:51.047Z,27.01
2018-08-08T07:46:30.093Z,27.02
2018-08-08T07:47:29.917Z,27.08
2018-08-08T07:48:29.904Z,27.20
2018-08-08T07:49:29.781Z,27.26
2018-08-08T07:50:29.816Z,27.23
2018-08-08T07:51:50.632Z,27.38
2018-08-08T07:52:29.633Z,27.44
2018-08-08T07:53:29.511Z,27.57
2018-08-08T07:54:29.530Z,27.61
2018-08-08T07:55:29.380Z,27.69
2018-08-08T07:56:29.357Z,27.73
2018-08-08T07:57:50.226Z,27.67
2018-08-08T07:58:29.262Z,27.82
2018-08-08T07:59:29.102Z,27.77
2018-08-08T08:00:29.286Z,27.83
2018-08-08T08:01:29.029Z,27.84
2018-08-08T08:02:28.972Z,27.88
2018-08-08T08:03:49.817Z,27.82
2018-08-08T08:04:28.783Z,27.94
2018-08-08T08:05:28.703Z,27.98
2018-08-08T08:06:28.693Z,27.94
2018-08-08T08:07:28.619Z,27.99
2018-08-08T08:08:28.607Z,28.06
2018-08-08T08:09:49.409Z,28.11
2018-08-08T08:10:28.410Z,28.20
2018-08-08T08:11:28.294Z,28.34
2018-08-08T08:12:28.321Z,28.38
2018-08-08T08:13:28.157Z,28.43
2018-08-08T08:14:28.129Z,28.50
2018-08-08T08:15:49.008Z,28.59
2018-08-08T08:16:28.043Z,28.65
2018-08-08T08:17:27.887Z,28.73
2018-08-08T08:18:27.854Z,28.84
2018-08-08T08:19:27.759Z,28.96
2018-08-08T08:20:27.766Z,29.03
2018-08-08T08:21:48.607Z,29.09
2018-08-08T08:22:27.671Z,29.23
2018-08-08T08:23:27.493Z,29.23
2018-08-08T08:24:27.485Z,29.29
2018-08-08T08:25:27.358Z,29.47
2018-08-08T08:26:27.402Z,29.47
2018-08-08T08:27:48.213Z,29.51
2018-08-08T08:28:27.206Z,29.53
2018-08-08T08:29:27.090Z,29.62
2018-08-08T08:30:27.115Z,29.58
2018-08-08T08:31:26.964Z,29.65
2018-08-08T08:32:26.930Z,29.65
2018-08-08T08:33:47.817Z,29.66
2018-08-08T08:34:26.838Z,29.83
2018-08-08T08:35:26.703Z,29.84
2018-08-08T08:36:26.753Z,29.95
2018-08-08T08:37:26.560Z,29.99
2018-08-08T08:38:26.557Z,30.08
2018-08-08T08:39:47.419Z,30.08
2018-08-08T08:40:26.470Z,30.19
2018-08-08T08:41:26.299Z,30.12
2018-08-08T08:42:26.284Z,30.14
2018-08-08T08:43:26.170Z,30.05
2018-08-08T08:44:26.185Z,30.06
2018-08-08T08:45:47.027Z,29.93
2018-08-08T08:46:25.994Z,29.87
2018-08-08T08:47:25.904Z,29.74
2018-08-08T08:48:25.909Z,29.77
2018-08-08T08:49:25.781Z,29.65
2018-08-08T08:50:25.949Z,29.58
2018-08-08T08:51:46.637Z,29.56
2018-08-08T08:52:25.628Z,29.44
2018-08-08T08:53:25.509Z,29.26
2018-08-08T08:54:25.540Z,29.22
2018-08-08T08:55:25.388Z,29.18
2018-08-08T08:56:25.341Z,29.16
2018-08-08T08:57:46.240Z,28.96
2018-08-08T08:58:25.264Z,29.01
2018-08-08T08:59:25.119Z,28.91
2018-08-08T09:00:25.173Z,28.88
2018-08-08T09:01:24.993Z,28.84
2018-08-08T09:02:25.004Z,28.87
2018-08-08T09:03:45.854Z,28.72
2018-08-08T09:04:24.892Z,28.69
2018-08-08T09:05:24.731Z,28.69
2018-08-08T09:06:24.695Z,28.59
2018-08-08T09:07:24.606Z,28.63
2018-08-08T09:08:24.605Z,28.59
2018-08-08T09:09:45.450Z,28.59
2018-08-08T09:10:24.515Z,28.49
2018-08-08T09:11:24.339Z,28.53
2018-08-08T09:12:24.324Z,28.31
2018-08-08T09:13:24.200Z,28.06
2018-08-08T09:14:24.237Z,27.80
2018-08-08T09:15:45.127Z,27.51
2018-08-08T09:16:24.052Z,27.32
2018-08-08T09:17:23.945Z,27.09
2018-08-08T09:18:23.953Z,26.84
2018-08-08T09:19:23.808Z,26.58
2018-08-08T09:20:23.761Z,26.32
2018-08-08T09:21:44.659Z,26.21
2018-08-08T09:22:23.680Z,26.09
2018-08-08T09:23:23.544Z,25.93
2018-08-08T09:24:23.582Z,25.86
2018-08-08T09:25:23.412Z,25.67
2018-08-08T09:26:23.393Z,25.57
2018-08-08T09:27:44.261Z,25.52
2018-08-08T09:28:23.329Z,25.45
2018-08-08T09:29:23.145Z,25.35
2018-08-08T09:30:23.170Z,25.31
2018-08-08T09:31:23.108Z,25.20
2018-08-08T09:32:23.023Z,25.20
2018-08-08T09:33:43.862Z,25.08
2018-08-08T09:34:22.836Z,25.01
2018-08-08T09:35:22.748Z,25.08
2018-08-08T09:36:22.744Z,25.01
2018-08-08T09:37:22.611Z,25.05
2018-08-08T09:38:22.659Z,25.08
2018-08-08T09:39:43.471Z,24.97
2018-08-08T09:40:22.497Z,25.08
2018-08-08T09:41:22.351Z,25.12
2018-08-08T09:42:22.376Z,25.22
2018-08-08T09:43:22.205Z,25.17
2018-08-08T09:44:22.183Z,25.10
2018-08-08T09:45:43.064Z,25.28
2018-08-08T09:46:22.105Z,25.35
2018-08-08T09:47:21.939Z,25.28
2018-08-08T09:48:21.903Z,25.35
2018-08-08T09:49:21.810Z,25.38
2018-08-08T09:50:21.814Z,25.41
2018-08-08T09:51:42.655Z,25.45
2018-08-08T09:52:21.628Z,25.46
2018-08-08T09:53:21.543Z,25.52
2018-08-08T09:54:21.534Z,25.62
2018-08-08T09:55:21.404Z,25.55
2018-08-08T09:56:21.467Z,25.56
2018-08-08T09:57:42.249Z,25.47
2018-08-08T09:58:21.259Z,25.32
2018-08-08T09:59:21.133Z,25.19
2018-08-08T10:00:21.174Z,25.20
2018-08-08T10:01:20.995Z,25.09
2018-08-08T10:02:20.972Z,25.17
2018-08-08T10:03:41.842Z,25.16
2018-08-08T10:04:20.896Z,25.16
2018-08-08T10:05:20.720Z,25.22
2018-08-08T10:06:20.696Z,25.25
2018-08-08T10:07:20.588Z,25.23
2018-08-08T10:08:20.605Z,25.28
2018-08-08T10:09:41.433Z,25.34
2018-08-08T10:10:20.411Z,25.27
2018-08-08T10:11:20.315Z,25.37
2018-08-08T10:12:20.325Z,25.31
2018-08-08T10:13:20.180Z,25.30
2018-08-08T10:14:20.136Z,25.22
2018-08-08T10:15:41.028Z,25.13
2018-08-08T10:16:20.052Z,24.94
2018-08-08T10:17:19.976Z,24.97
2018-08-08T10:18:19.953Z,24.82
2018-08-08T10:19:19.772Z,24.80
2018-08-08T10:20:19.765Z,24.85
2018-08-08T10:21:40.632Z,24.90
2018-08-08T10:22:19.674Z,24.83
2018-08-08T10:23:19.537Z,24.91
2018-08-08T10:24:19.485Z,24.97
2018-08-08T10:25:19.363Z,24.94
2018-08-08T10:26:19.393Z,24.94
2018-08-08T10:27:40.217Z,24.91
2018-08-08T10:28:19.199Z,24.90
2018-08-08T10:29:19.112Z,25.09
2018-08-08T10:30:19.111Z,25.04
2018-08-08T10:31:18.989Z,25.12
2018-08-08T10:32:18.921Z,25.12
2018-08-08T10:33:39.823Z,25.19
2018-08-08T10:34:18.838Z,25.17
2018-08-08T10:35:18.688Z,25.25
2018-08-08T10:36:18.639Z,25.22
2018-08-08T10:37:18.564Z,25.37
2018-08-08T10:38:18.548Z,25.28
2018-08-08T10:39:39.402Z,25.32
2018-08-08T10:40:18.461Z,25.31
2018-08-08T10:41:18.284Z,25.23
2018-08-08T10:42:18.267Z,25.23
2018-08-08T10:43:18.155Z,25.30
2018-08-08T10:44:18.179Z,25.16
2018-08-08T10:45:38.992Z,25.17
2018-08-08T10:46:17.991Z,25.25
2018-08-08T10:47:17.882Z,25.23
2018-08-08T10:48:18.512Z,25.20
2018-08-08T10:49:17.743Z,25.31
2018-08-08T10:50:17.715Z,25.30
2018-08-08T10:51:38.599Z,25.34
2018-08-08T10:52:17.623Z,25.35
2018-08-08T10:53:17.470Z,25.17
2018-08-08T10:54:17.427Z,25.23
2018-08-08T10:55:17.331Z,25.15
2018-08-08T10:56:17.401Z,25.19
2018-08-08T10:57:38.183Z,25.13
2018-08-08T10:58:17.148Z,25.13
2018-08-08T10:59:17.059Z,25.12
2018-08-08T11:00:17.069Z,25.13
2018-08-08T11:01:16.924Z,25.12
2018-08-08T11:02:16.974Z,25.10
2018-08-08T11:03:37.775Z,25.05
2018-08-08T11:04:16.781Z,25.09
2018-08-08T11:05:16.653Z,25.04
2018-08-08T11:06:16.700Z,24.95
2018-08-08T11:07:16.518Z,24.97
2018-08-08T11:08:16.504Z,24.94
2018-08-08T11:09:37.364Z,24.91
2018-08-08T11:10:16.416Z,25.04
2018-08-08T11:11:16.243Z,25.02
2018-08-08T11:12:16.219Z,25.10
2018-08-08T11:13:16.115Z,25.05
2018-08-08T11:14:16.128Z,25.10
2018-08-08T11:15:36.961Z,25.08
2018-08-08T11:16:16.019Z,25.13
2018-08-08T11:17:15.845Z,25.13
2018-08-08T11:18:15.845Z,25.10
2018-08-08T11:19:15.699Z,25.22
2018-08-08T11:20:15.661Z,25.19
2018-08-08T11:21:36.545Z,25.25
2018-08-08T11:22:15.567Z,25.30
2018-08-08T11:23:15.430Z,25.23
2018-08-08T11:24:15.377Z,25.15
2018-08-08T11:25:15.293Z,25.30
2018-08-08T11:26:15.290Z,25.27
2018-08-08T11:27:36.147Z,25.27
2018-08-08T11:28:15.201Z,25.32
2018-08-08T11:29:15.017Z,25.45
2018-08-08T11:30:15.018Z,25.47
2018-08-08T11:31:14.888Z,25.47
2018-08-08T11:32:14.923Z,25.49
2018-08-08T11:33:35.733Z,25.57
2018-08-08T11:34:14.724Z,25.56
2018-08-08T11:35:14.613Z,25.47
2018-08-08T11:36:14.642Z,25.60
2018-08-08T11:37:14.476Z,25.62
2018-08-08T11:38:14.447Z,25.59
2018-08-08T11:39:35.339Z,25.46
2018-08-08T11:40:14.359Z,25.55
2018-08-08T11:41:14.204Z,25.59
2018-08-08T11:42:14.168Z,25.62
2018-08-08T11:43:14.070Z,25.71
2018-08-08T11:44:20.636Z,25.68
2018-08-08T11:45:34.919Z,25.62
2018-08-08T11:46:15.938Z,25.67
2018-08-08T11:47:13.800Z,25.78
2018-08-08T11:48:13.799Z,25.78
2018-08-08T11:49:13.663Z,25.79
2018-08-08T11:50:14.630Z,25.83
2018-08-08T11:51:34.504Z,25.79
2018-08-08T11:52:13.571Z,25.74
2018-08-08T11:53:13.401Z,25.87
2018-08-08T11:54:13.429Z,25.83
2018-08-08T11:55:13.251Z,25.78
2018-08-08T11:56:14.270Z,25.90
2018-08-08T11:57:34.104Z,25.94
2018-08-08T11:58:13.154Z,26.08
2018-08-08T11:59:13.050Z,26.08
2018-08-08T12:00:13.986Z,26.09
2018-08-08T12:01:12.849Z,26.02
2018-08-08T12:02:13.899Z,26.16
2018-08-08T12:03:33.695Z,26.16
2018-08-08T12:04:12.677Z,26.11
2018-08-08T12:05:12.598Z,26.25
2018-08-08T12:06:12.649Z,26.24
2018-08-08T12:07:12.444Z,26.27
2018-08-08T12:08:12.399Z,26.16
2018-08-08T12:09:33.288Z,26.31
2018-08-08T12:10:12.310Z,26.24
2018-08-08T12:11:12.171Z,26.32
2018-08-08T12:12:12.248Z,26.45
2018-08-08T12:13:12.031Z,26.45
2018-08-08T12:14:12.030Z,26.49
2018-08-08T12:15:32.980Z,26.57
2018-08-08T12:16:11.947Z,26.57
2018-08-08T12:17:11.763Z,26.76
2018-08-08T12:18:11.746Z,26.77
2018-08-08T12:19:11.633Z,26.80
2018-08-08T12:20:11.664Z,26.84
2018-08-08T12:21:32.476Z,26.87
2018-08-08T12:22:11.465Z,26.90
2018-08-08T12:23:11.360Z,26.92
2018-08-08T12:24:11.374Z,27.08
2018-08-08T12:25:11.224Z,27.09
2018-08-08T12:26:11.214Z,27.21
2018-08-08T12:27:32.074Z,27.23
2018-08-08T12:28:11.092Z,27.26
2018-08-08T12:29:10.953Z,27.23
2018-08-08T12:30:11.011Z,27.21
2018-08-08T12:31:10.823Z,27.34
2018-08-08T12:32:10.863Z,27.41
2018-08-08T12:33:31.684Z,27.39
2018-08-08T12:34:10.726Z,27.49
2018-08-08T12:35:10.601Z,27.54
2018-08-08T12:36:11.572Z,27.70
2018-08-08T12:37:10.420Z,27.70
2018-08-08T12:38:10.444Z,27.74
2018-08-08T12:39:31.272Z,27.79
2018-08-08T12:40:10.253Z,27.83
2018-08-08T12:41:10.158Z,27.94
2018-08-08T12:42:10.163Z,27.84
2018-08-08T12:43:10.021Z,27.76
2018-08-08T12:44:11.012Z,27.76
2018-08-08T12:45:30.868Z,27.76
2018-08-08T12:46:09.896Z,27.70
2018-08-08T12:47:09.752Z,27.77
2018-08-08T12:48:09.794Z,27.77
2018-08-08T12:49:09.621Z,27.73
2018-08-08T12:50:09.605Z,27.74
2018-08-08T12:51:30.489Z,27.76